46D weather

Carrington Municipal Airport
Carrington, North Dakota, United States

Public forecast

Using degrees Fahrenheit for public forecast. Weather courtesy of forecast.io.

Current aviation weather report (METAR) for Carrington Municipal Airport

Retrieved 2020/07/12 08:35 UTC (10 minutes ago):

K46D 120835Z AUTO 27004KT 10SM CLR 17/15 A3005 RMK AO2

Closest aviation forecast (TAF) to Carrington Municipal Airport

Closest forecast is Jamestown Regional Airport, 36.8 nm (68.1 km) SSE. Retrieved 2020/07/12 06:33 UTC (2 hours ago):

TAF KJMS 120531Z 1206/1306 00000KT P6SM FEW250 FM121500 23005KT P6SM FEW250 FM122100 18007KT P6SM SCT250